Time;durP1;ratioP1;P1;durP2;ratioP2;P2;SDS_P1;SDS_P2;PMS_P1;PMS_P2;Temp;Humidity;BMP_temperature;BMP_pressure;BME280_temperature;BME280_humidity;BME280_pressure;Samples;Min_cycle;Max_cycle;Signal;HPM_P1;HPM_P2
2023/04/12 00:01:51;;;;;;;0.20;0.20;;;6.90;99.20;;;;;;6210823;23;20484;-76
2023/04/12 00:04:21;;;;;;;0.20;0.20;;;7.00;99.20;;;;;;6211155;23;20107;-76
2023/04/12 00:06:47;;;;;;;0.20;0.20;;;7.10;99.30;;;;;;6211257;23;20391;-75
2023/04/12 00:09:16;;;;;;;0.10;0.10;;;7.00;99.40;;;;;;6211534;23;20091;-76
2023/04/12 00:11:41;;;;;;;0.20;0.20;;;7.00;99.50;;;;;;6235430;23;20023;-76
2023/04/12 00:14:07;;;;;;;0.20;0.20;;;7.00;99.50;;;;;;6211897;23;20028;-76
2023/04/12 00:16:34;;;;;;;0.20;0.20;;;7.10;99.60;;;;;;6236580;23;20097;-75
2023/04/12 00:19:02;;;;;;;0.20;0.20;;;7.10;99.60;;;;;;6210246;23;20091;-75
2023/04/12 00:21:28;;;;;;;0.20;0.20;;;7.10;99.70;;;;;;6237252;23;20024;-75
2023/04/12 00:23:55;;;;;;;0.10;0.10;;;7.00;99.70;;;;;;6218456;23;20016;-76
2023/04/12 00:26:21;;;;;;;0.17;0.17;;;7.10;99.80;;;;;;6214879;23;20024;-76
2023/04/12 00:28:47;;;;;;;0.20;0.20;;;7.10;99.80;;;;;;6241767;23;20020;-75
2023/04/12 00:31:12;;;;;;;0.20;0.20;;;7.30;99.90;;;;;;6241770;23;20035;-75
2023/04/12 00:33:38;;;;;;;0.10;0.10;;;7.10;99.90;;;;;;6241982;23;20020;-75
2023/04/12 00:36:07;;;;;;;0.20;0.20;;;7.10;99.90;;;;;;6248001;23;20063;-75
2023/04/12 00:38:32;;;;;;;0.20;0.20;;;7.10;99.90;;;;;;6218589;23;20019;-75
2023/04/12 00:40:58;;;;;;;0.15;0.15;;;7.10;99.90;;;;;;6237106;23;20012;-76
2023/04/12 00:43:27;;;;;;;0.20;0.20;;;7.10;99.90;;;;;;6212287;23;20012;-76
2023/04/12 00:45:55;;;;;;;0.10;0.10;;;7.10;99.90;;;;;;6211020;23;20027;-76
2023/04/12 00:48:22;;;;;;;0.20;0.20;;;7.20;99.90;;;;;;6243702;23;20016;-75
2023/04/12 00:50:54;;;;;;;0.20;0.20;;;7.20;99.90;;;;;;6239120;23;20128;-76
2023/04/12 00:53:23;;;;;;;0.20;0.20;;;7.80;99.90;;;;;;6240654;23;20019;-76
2023/04/12 00:55:51;;;;;;;0.20;0.20;;;7.20;99.90;;;;;;6214033;23;20020;-76
2023/04/12 00:58:17;;;;;;;0.20;0.20;;;7.20;99.90;;;;;;6214645;23;20090;-75
2023/04/12 01:00:51;;;;;;;0.20;0.20;;;7.20;99.90;;;;;;6239693;23;20094;-75
2023/04/12 01:03:21;;;;;;;0.20;0.20;;;7.30;99.90;;;;;;6213785;23;20437;-75
2023/04/12 01:06:08;;;;;;;0.20;0.20;;;7.30;99.90;;;;;;6243490;23;20016;-75
2023/04/12 01:08:57;;;;;;;0.20;0.20;;;7.30;99.90;;;;;;6239394;23;20050;-76
2023/04/12 01:11:35;;;;;;;0.20;0.20;;;7.30;99.90;;;;;;6210104;23;20028;-74
2023/04/12 01:14:08;;;;;;;0.10;0.10;;;7.30;99.90;;;;;;6238508;23;20132;-76
2023/04/12 01:16:43;;;;;;;0.20;0.20;;;7.40;99.90;;;;;;6210994;23;20070;-75
2023/04/12 01:19:34;;;;;;;0.20;0.20;;;7.40;99.90;;;;;;6239245;23;20318;-75
2023/04/12 01:22:06;;;;;;;0.20;0.20;;;7.40;99.90;;;;;;6210117;23;20012;-75
2023/04/12 01:24:35;;;;;;;;;;;7.10;99.90;;;;;;6215972;23;20043;-76
2023/04/12 01:27:02;;;;;;;0.20;0.20;;;7.40;99.90;;;;;;6237839;23;19916;-76
2023/04/12 01:29:30;;;;;;;0.20;0.20;;;7.40;99.90;;;;;;6211604;23;20024;-76
2023/04/12 01:32:00;;;;;;;0.20;0.20;;;7.40;99.90;;;;;;6211917;23;20389;-76
2023/04/12 01:34:29;;;;;;;0.20;0.20;;;7.40;99.90;;;;;;6214619;23;20020;-76
2023/04/12 01:37:01;;;;;;;0.10;0.10;;;7.40;99.90;;;;;;6213392;23;20409;-75
2023/04/12 01:39:28;;;;;;;0.20;0.20;;;7.50;99.90;;;;;;6243617;23;20019;-76
2023/04/12 01:41:54;;;;;;;0.15;0.15;;;7.50;99.90;;;;;;6239362;23;20016;-76
2023/04/12 01:44:20;;;;;;;0.17;0.17;;;7.50;99.90;;;;;;6214360;23;20459;-76
2023/04/12 01:46:47;;;;;;;0.20;0.20;;;7.50;99.90;;;;;;6216384;23;20016;-76
2023/04/12 01:49:14;;;;;;;0.10;0.10;;;7.50;99.90;;;;;;6242961;23;20433;-76
2023/04/12 01:52:02;;;;;;;0.20;0.20;;;7.60;99.90;;;;;;6215344;23;20054;-76
2023/04/12 01:54:31;;;;;;;0.20;0.20;;;7.50;99.90;;;;;;6215630;23;20031;-76
2023/04/12 01:57:01;;;;;;;0.20;0.20;;;7.50;99.90;;;;;;6214089;23;20020;-76
2023/04/12 01:59:40;;;;;;;0.10;0.10;;;7.60;99.90;;;;;;6242791;23;20448;-76
2023/04/12 02:02:07;;;;;;;0.20;0.20;;;7.60;99.90;;;;;;6243409;23;20134;-76
2023/04/12 02:04:34;;;;;;;0.20;0.20;;;7.60;99.90;;;;;;6242456;23;20388;-76
2023/04/12 02:07:00;;;;;;;0.20;0.20;;;7.60;99.90;;;;;;6216713;23;20344;-76
2023/04/12 02:09:26;;;;;;;0.20;0.20;;;7.60;99.90;;;;;;6242670;23;20055;-76
2023/04/12 02:11:52;;;;;;;0.20;0.20;;;7.70;99.90;;;;;;6241548;23;20020;-76
2023/04/12 02:14:18;;;;;;;0.17;0.17;;;7.70;99.90;;;;;;6217045;23;20020;-76
2023/04/12 02:16:44;;;;;;;0.10;0.10;;;7.70;99.90;;;;;;6217174;23;20441;-75
2023/04/12 02:19:11;;;;;;;0.20;0.20;;;7.80;99.90;;;;;;6219040;23;20063;-76
2023/04/12 02:21:44;;;;;;;0.20;0.20;;;7.80;99.90;;;;;;6250393;23;20023;-76
2023/04/12 02:24:11;;;;;;;0.20;0.20;;;7.80;99.90;;;;;;6241525;23;20016;-75
2023/04/12 02:26:37;;;;;;;0.20;0.20;;;7.90;99.90;;;;;;6214371;23;20439;-75
2023/04/12 02:29:07;;;;;;;0.20;0.20;;;7.90;99.90;;;;;;6240975;23;20444;-76
2023/04/12 02:31:35;;;;;;;0.20;0.20;;;7.90;99.90;;;;;;6242079;23;20016;-76
2023/04/12 02:34:01;;;;;;;0.10;0.10;;;7.90;99.90;;;;;;6213819;23;20091;-77
2023/04/12 02:36:30;;;;;;;0.10;0.10;;;7.90;99.90;;;;;;6241141;23;20516;-77
2023/04/12 02:38:56;;;;;;;0.20;0.20;;;8.10;99.90;;;;;;6239547;23;20424;-76
2023/04/12 02:41:22;;;;;;;0.20;0.20;;;8.00;99.90;;;;;;6210158;23;20364;-76
2023/04/12 02:43:48;;;;;;;0.10;0.10;;;8.00;99.90;;;;;;6240842;23;20334;-76
2023/04/12 02:46:18;;;;;;;0.20;0.20;;;8.00;99.90;;;;;;6214068;23;20027;-76
2023/04/12 02:48:44;;;;;;;0.20;0.20;;;8.00;99.90;;;;;;6214259;23;20057;-76
2023/04/12 02:51:10;;;;;;;0.10;0.10;;;8.00;99.90;;;;;;6214485;23;20049;-76
2023/04/12 02:53:36;;;;;;;0.20;0.20;;;8.00;99.90;;;;;;6214662;23;20020;-77
2023/04/12 02:56:05;;;;;;;0.10;0.10;;;8.00;99.90;;;;;;6212523;23;20031;-77
2023/04/12 02:58:32;;;;;;;0.20;0.20;;;8.10;99.90;;;;;;6239627;23;20047;-77
2023/04/12 03:00:59;;;;;;;0.10;0.10;;;8.00;99.90;;;;;;6210449;23;20023;-76
2023/04/12 03:03:30;;;;;;;0.20;0.20;;;8.00;99.90;;;;;;6210862;22;20043;-76
2023/04/12 03:05:57;;;;;;;;;;;8.10;99.90;;;;;;6238852;23;20456;-76
2023/04/12 03:08:35;;;;;;;0.20;0.20;;;8.10;99.90;;;;;;6237624;23;19915;-76
2023/04/12 03:11:15;;;;;;;0.20;0.20;;;8.70;99.90;;;;;;6212570;23;20383;-77
2023/04/12 03:13:47;;;;;;;0.20;0.20;;;8.50;99.90;;;;;;6239199;23;20020;-76
2023/04/12 03:16:37;;;;;;;0.20;0.20;;;8.00;99.90;;;;;;6213098;23;20016;-77
2023/04/12 03:19:04;;;;;;;0.20;0.20;;;8.50;99.90;;;;;;6238239;23;20020;-76
2023/04/12 03:21:39;;;;;;;0.17;0.17;;;8.10;99.90;;;;;;6237400;22;20023;-76
2023/04/12 03:24:05;;;;;;;0.10;0.10;;;8.10;99.90;;;;;;6239454;23;20055;-76
2023/04/12 03:26:30;;;;;;;0.10;0.10;;;8.10;99.90;;;;;;6210714;23;20016;-75
2023/04/12 03:28:59;;;;;;;0.20;0.20;;;8.10;99.90;;;;;;6211093;23;20020;-76
2023/04/12 03:31:26;;;;;;;0.17;0.17;;;8.00;99.90;;;;;;6212209;23;20020;-75
2023/04/12 03:33:52;;;;;;;0.20;0.20;;;8.10;99.90;;;;;;6242744;23;20019;-75
2023/04/12 03:36:19;;;;;;;0.17;0.17;;;8.10;99.90;;;;;;6242191;23;20344;-75
2023/04/12 03:38:48;;;;;;;0.20;0.20;;;8.20;99.90;;;;;;6239613;23;20473;-75
2023/04/12 03:41:14;;;;;;;0.13;0.13;;;8.20;99.90;;;;;;6237684;23;20036;-76
2023/04/12 03:43:41;;;;;;;0.10;0.10;;;8.20;99.90;;;;;;6209676;23;20012;-75
2023/04/12 03:46:07;;;;;;;0.20;0.20;;;8.20;99.90;;;;;;6238465;23;20016;-76
2023/04/12 03:48:33;;;;;;;0.10;0.10;;;8.20;99.90;;;;;;6209454;23;20326;-75
2023/04/12 03:50:59;;;;;;;0.20;0.20;;;8.20;99.90;;;;;;6212319;23;20027;-76
2023/04/12 03:53:29;;;;;;;0.20;0.20;;;8.20;99.90;;;;;;6213208;23;20314;-75
2023/04/12 03:55:55;;;;;;;0.10;0.10;;;8.40;99.90;;;;;;6238864;23;20020;-75
2023/04/12 03:58:21;;;;;;;0.20;0.20;;;8.30;99.90;;;;;;6242546;23;20099;-75
2023/04/12 04:00:47;;;;;;;0.13;0.13;;;8.20;99.90;;;;;;6243827;23;20012;-76
2023/04/12 04:03:14;;;;;;;0.10;0.10;;;8.20;99.90;;;;;;6244826;23;20020;-75
2023/04/12 04:05:39;;;;;;;0.20;0.20;;;8.20;99.90;;;;;;6222121;23;20083;-75
2023/04/12 04:08:07;;;;;;;0.10;0.10;;;8.20;99.90;;;;;;6213888;23;20098;-76
2023/04/12 04:10:33;;;;;;;0.20;0.20;;;8.30;99.90;;;;;;6212211;23;20020;-76
2023/04/12 04:12:59;;;;;;;0.20;0.20;;;8.20;99.90;;;;;;6214869;23;20050;-77
2023/04/12 04:15:26;;;;;;;0.20;0.20;;;8.20;99.90;;;;;;6241963;23;20393;-76
2023/04/12 04:17:52;;;;;;;0.20;0.20;;;8.10;99.90;;;;;;6210680;23;20013;-77
2023/04/12 04:20:18;;;;;;;0.20;0.20;;;8.10;99.90;;;;;;6210397;23;20070;-76
2023/04/12 04:22:48;;;;;;;0.20;0.20;;;8.10;99.90;;;;;;6211329;23;20024;-77
2023/04/12 04:25:14;;;;;;;0.20;0.20;;;8.10;99.90;;;;;;6209928;23;20115;-76
2023/04/12 04:27:44;;;;;;;0.10;0.10;;;8.10;99.90;;;;;;6210550;23;20020;-76
2023/04/12 04:30:11;;;;;;;0.10;0.10;;;8.10;99.90;;;;;;6210917;23;20633;-76
2023/04/12 04:32:37;;;;;;;0.20;0.20;;;8.10;99.90;;;;;;6237116;23;20393;-76
2023/04/12 04:35:04;;;;;;;0.20;0.20;;;8.20;99.90;;;;;;6238434;23;20012;-76
2023/04/12 04:37:30;;;;;;;0.20;0.20;;;8.10;99.90;;;;;;6214768;23;20048;-76
2023/04/12 04:39:56;;;;;;;0.20;0.20;;;8.10;99.90;;;;;;6241797;23;20337;-77
2023/04/12 04:42:23;;;;;;;0.20;0.20;;;8.00;99.90;;;;;;6239598;23;20047;-77
2023/04/12 04:45:01;;;;;;;0.10;0.10;;;8.00;99.90;;;;;;6209829;23;20062;-76
2023/04/12 04:47:29;;;;;;;0.15;0.15;;;8.00;99.90;;;;;;6239099;23;20012;-77
2023/04/12 04:49:56;;;;;;;0.20;0.20;;;8.00;99.90;;;;;;6211414;23;20074;-77
2023/04/12 04:52:22;;;;;;;0.20;0.20;;;8.00;99.90;;;;;;6237436;23;20020;-78
2023/04/12 04:54:48;;;;;;;0.20;0.20;;;8.00;99.90;;;;;;6211152;23;20043;-77
2023/04/12 04:57:14;;;;;;;0.20;0.20;;;8.00;99.90;;;;;;6236842;23;20043;-77
2023/04/12 04:59:40;;;;;;;0.20;0.20;;;8.00;99.90;;;;;;6210543;23;20449;-77
2023/04/12 05:02:06;;;;;;;0.20;0.20;;;8.00;99.90;;;;;;6239124;23;20019;-77
2023/04/12 05:04:32;;;;;;;0.20;0.20;;;8.20;99.90;;;;;;6242908;23;20047;-77
2023/04/12 05:06:57;;;;;;;0.20;0.20;;;7.90;99.90;;;;;;6240055;23;20030;-77
2023/04/12 05:09:23;;;;;;;0.10;0.10;;;8.10;99.90;;;;;;6211746;23;20062;-77
2023/04/12 05:11:49;;;;;;;0.20;0.20;;;7.90;99.90;;;;;;6210103;23;20016;-78
2023/04/12 05:14:15;;;;;;;0.20;0.20;;;7.90;99.90;;;;;;6211780;23;20083;-76
2023/04/12 05:16:40;;;;;;;0.20;0.20;;;8.10;99.90;;;;;;6212565;23;20016;-78
2023/04/12 05:19:06;;;;;;;0.20;0.20;;;7.90;99.90;;;;;;6239923;23;20012;-77
2023/04/12 05:21:32;;;;;;;0.20;0.20;;;7.90;99.90;;;;;;6212835;23;20024;-77
2023/04/12 05:23:58;;;;;;;0.20;0.20;;;7.90;99.90;;;;;;6213827;23;20020;-78
2023/04/12 05:26:24;;;;;;;0.17;0.17;;;7.90;99.90;;;;;;6211392;23;20210;-77
2023/04/12 05:28:50;;;;;;;0.10;0.10;;;7.90;99.90;;;;;;6212557;23;20135;-77
2023/04/12 05:31:16;;;;;;;0.10;0.10;;;7.90;99.90;;;;;;6212892;23;20456;-77
2023/04/12 05:33:43;;;;;;;0.20;0.20;;;7.90;99.90;;;;;;6240954;23;20012;-76
2023/04/12 05:36:10;;;;;;;0.20;0.20;;;7.90;99.90;;;;;;6239508;23;20020;-76
2023/04/12 05:38:35;;;;;;;0.20;0.20;;;7.80;99.90;;;;;;6241574;23;20035;-77
2023/04/12 05:41:04;;;;;;;0.10;0.10;;;7.80;99.90;;;;;;6211112;23;20561;-77
2023/04/12 05:43:31;;;;;;;0.15;0.15;;;7.80;99.90;;;;;;6188772;23;20016;-76
2023/04/12 05:45:58;;;;;;;0.20;0.20;;;7.80;99.90;;;;;;6214717;23;20412;-76
2023/04/12 05:48:24;;;;;;;0.10;0.10;;;7.80;99.90;;;;;;6250440;23;20027;-75
2023/04/12 05:50:51;;;;;;;0.20;0.20;;;7.80;99.90;;;;;;6219034;23;20051;-76
2023/04/12 05:53:17;;;;;;;0.20;0.20;;;7.70;99.90;;;;;;6242626;23;20012;-76
2023/04/12 05:55:43;;;;;;;0.20;0.20;;;7.80;99.90;;;;;;6239214;23;20065;-76
2023/04/12 05:58:09;;;;;;;0.10;0.10;;;7.80;99.90;;;;;;6215106;23;20368;-77
2023/04/12 06:00:40;;;;;;;0.10;0.10;;;7.80;99.90;;;;;;6213957;23;20349;-76
2023/04/12 06:03:09;;;;;;;0.15;0.15;;;7.80;99.90;;;;;;6211848;23;20066;-77
2023/04/12 06:05:35;;;;;;;0.20;0.20;;;7.80;99.90;;;;;;6238971;23;20031;-77
2023/04/12 06:08:00;;;;;;;0.20;0.20;;;8.00;99.90;;;;;;6239298;23;20020;-77
2023/04/12 06:10:26;;;;;;;0.20;0.20;;;7.80;99.90;;;;;;6209276;23;20344;-76
2023/04/12 06:12:52;;;;;;;0.20;0.20;;;7.80;99.90;;;;;;6239569;23;20012;-76
2023/04/12 06:15:19;;;;;;;0.20;0.20;;;7.80;99.90;;;;;;6236975;23;20016;-78
2023/04/12 06:17:45;;;;;;;0.15;0.15;;;7.80;99.90;;;;;;6214139;23;20096;-76
2023/04/12 06:20:11;;;;;;;0.10;0.10;;;7.80;99.90;;;;;;6214004;23;20035;-76
2023/04/12 06:22:37;;;;;;;0.20;0.20;;;7.80;99.90;;;;;;6209300;23;20078;-76
2023/04/12 06:25:04;;;;;;;0.10;0.10;;;7.80;99.90;;;;;;6214360;23;20020;-77
2023/04/12 06:27:30;;;;;;;0.20;0.20;;;7.80;99.90;;;;;;6240539;23;20012;-76
2023/04/12 06:29:56;;;;;;;0.20;0.20;;;7.90;99.90;;;;;;6242032;23;20447;-76
2023/04/12 06:32:24;;;;;;;0.10;0.10;;;7.80;99.90;;;;;;6241559;23;20520;-75
2023/04/12 06:34:50;;;;;;;0.17;0.17;;;7.80;99.90;;;;;;6215463;23;20039;-76
2023/04/12 06:37:16;;;;;;;0.20;0.20;;;7.80;99.90;;;;;;6214484;23;20008;-76
2023/04/12 06:39:41;;;;;;;0.20;0.20;;;7.80;99.90;;;;;;6215769;23;20011;-76
2023/04/12 06:42:07;;;;;;;0.20;0.20;;;7.80;99.90;;;;;;6212137;23;20012;-76
2023/04/12 06:44:33;;;;;;;0.20;0.20;;;7.80;99.90;;;;;;6241995;23;20070;-76
2023/04/12 06:47:01;;;;;;;0.20;0.20;;;7.70;99.90;;;;;;6241326;23;20012;-77
2023/04/12 06:49:27;;;;;;;0.20;0.20;;;7.80;99.90;;;;;;6242296;23;20016;-76
2023/04/12 06:51:52;;;;;;;0.10;0.10;;;7.80;99.90;;;;;;6214832;23;20020;-76
2023/04/12 06:54:18;;;;;;;0.20;0.20;;;7.80;99.90;;;;;;6216028;23;20012;-76
2023/04/12 06:56:44;;;;;;;0.20;0.20;;;7.80;99.90;;;;;;6240644;23;20039;-76
2023/04/12 06:59:10;;;;;;;0.17;0.17;;;7.80;99.90;;;;;;6242205;23;20039;-77
2023/04/12 07:01:35;;;;;;;0.20;0.20;;;7.80;99.90;;;;;;6242790;23;20074;-77
2023/04/12 07:04:01;;;;;;;0.20;0.20;;;7.80;99.90;;;;;;6216428;23;20012;-77
2023/04/12 07:06:27;;;;;;;0.20;0.20;;;7.80;99.90;;;;;;6242928;23;20008;-77
2023/04/12 07:08:53;;;;;;;0.20;0.20;;;7.80;99.90;;;;;;6243883;23;20376;-76
2023/04/12 07:11:21;;;;;;;0.20;0.20;;;7.80;99.90;;;;;;6240108;23;20095;-76
2023/04/12 07:13:47;;;;;;;0.20;0.20;;;7.80;99.90;;;;;;6242033;23;20459;-77
2023/04/12 07:16:13;;;;;;;0.10;0.10;;;7.80;99.90;;;;;;6242921;23;20016;-78
2023/04/12 07:18:39;;;;;;;0.17;0.17;;;7.80;99.90;;;;;;6215664;23;20074;-76
2023/04/12 07:21:05;;;;;;;0.20;0.20;;;7.70;99.90;;;;;;6214437;23;20035;-76
2023/04/12 07:23:31;;;;;;;0.20;0.20;;;7.70;99.90;;;;;;6243090;23;20021;-77
2023/04/12 07:26:00;;;;;;;0.20;0.20;;;7.70;99.90;;;;;;6214528;23;20008;-77
2023/04/12 07:28:26;;;;;;;0.10;0.10;;;7.70;99.90;;;;;;6215256;23;20390;-77
2023/04/12 07:30:51;;;;;;;0.20;0.20;;;7.80;99.90;;;;;;6215956;23;20030;-75
2023/04/12 07:33:17;;;;;;;0.20;0.20;;;7.70;99.90;;;;;;6227558;23;20022;-76
2023/04/12 07:35:43;;;;;;;0.10;0.10;;;7.70;99.90;;;;;;6214853;23;20023;-76
2023/04/12 07:38:08;;;;;;;0.15;0.15;;;7.70;99.90;;;;;;6215042;23;20019;-77
2023/04/12 07:40:34;;;;;;;0.10;0.10;;;7.70;99.90;;;;;;6211905;23;20071;-77
2023/04/12 07:43:00;;;;;;;0.20;0.20;;;7.70;99.90;;;;;;6216129;23;20019;-77
2023/04/12 07:45:26;;;;;;;0.20;0.20;;;7.70;99.90;;;;;;6242253;23;20020;-77
2023/04/12 07:47:54;;;;;;;0.17;0.17;;;7.60;99.90;;;;;;6214028;23;20047;-77
2023/04/12 07:50:20;;;;;;;0.15;0.15;;;7.70;99.90;;;;;;6213842;23;20456;-77
2023/04/12 07:52:45;;;;;;;0.20;0.20;;;7.70;99.90;;;;;;6242105;23;20019;-76
2023/04/12 07:55:11;;;;;;;0.20;0.20;;;7.70;99.90;;;;;;6214572;23;20016;-77
2023/04/12 07:57:37;;;;;;;0.20;0.20;;;7.70;99.90;;;;;;6241309;23;20039;-76
2023/04/12 08:00:04;;;;;;;0.10;0.10;;;7.70;99.90;;;;;;6242187;23;20020;-76
2023/04/12 08:02:30;;;;;;;0.20;0.20;;;7.70;99.90;;;;;;6213763;23;20016;-77
2023/04/12 08:04:56;;;;;;;0.20;0.20;;;7.70;99.90;;;;;;6215893;23;20138;-77
2023/04/12 08:07:22;;;;;;;0.10;0.10;;;7.70;99.90;;;;;;6241163;23;20094;-76
2023/04/12 08:09:48;;;;;;;0.15;0.15;;;7.70;99.90;;;;;;6241335;23;20449;-76
2023/04/12 08:12:14;;;;;;;0.20;0.20;;;7.70;99.90;;;;;;6213781;23;20035;-77
2023/04/12 08:14:40;;;;;;;0.20;0.20;;;7.80;99.90;;;;;;6215889;23;20400;-76
2023/04/12 08:17:06;;;;;;;0.10;0.10;;;7.70;99.90;;;;;;6241481;23;20016;-77
2023/04/12 08:19:31;;;;;;;0.10;0.10;;;7.70;99.90;;;;;;6242696;23;20015;-77
2023/04/12 08:21:57;;;;;;;0.20;0.20;;;7.80;99.90;;;;;;6214982;23;20020;-77
2023/04/12 08:24:23;;;;;;;0.20;0.20;;;7.80;99.90;;;;;;6240806;23;20052;-76
2023/04/12 08:26:50;;;;;;;0.20;0.20;;;7.80;99.90;;;;;;6213998;23;20069;-77
2023/04/12 08:29:19;;;;;;;0.20;0.20;;;7.90;99.90;;;;;;6215315;23;20395;-76
2023/04/12 08:31:45;;;;;;;0.20;0.20;;;7.90;99.90;;;;;;6214248;23;20021;-77
2023/04/12 08:34:10;;;;;;;0.20;0.20;;;7.90;99.90;;;;;;6242776;23;20019;-77
2023/04/12 08:36:36;;;;;;;0.20;0.20;;;8.00;99.90;;;;;;6215621;23;20337;-77
2023/04/12 08:39:05;;;;;;;0.20;0.20;;;8.00;99.90;;;;;;6214878;23;20480;-77
2023/04/12 08:41:33;;;;;;;0.20;0.20;;;8.00;99.90;;;;;;6214530;23;20335;-77
2023/04/12 08:43:59;;;;;;;0.20;0.20;;;8.10;99.90;;;;;;6217093;23;20047;-78
2023/04/12 08:46:26;;;;;;;0.20;0.20;;;8.10;99.90;;;;;;6217555;23;20046;-77
2023/04/12 08:48:57;;;;;;;0.10;0.10;;;8.10;99.90;;;;;;6218048;23;20013;-78
2023/04/12 08:51:22;;;;;;;0.20;0.20;;;8.10;99.90;;;;;;6215704;23;20012;-78
2023/04/12 08:53:49;;;;;;;0.20;0.20;;;8.10;99.90;;;;;;6245286;23;20127;-80
2023/04/12 08:56:15;;;;;;;0.20;0.20;;;8.10;99.90;;;;;;6243984;23;20361;-77
2023/04/12 08:58:44;;;;;;;0.20;0.20;;;8.10;99.90;;;;;;6244901;23;20376;-79
2023/04/12 09:01:14;;;;;;;0.20;0.20;;;8.10;99.90;;;;;;6244391;23;20073;-77
2023/04/12 09:03:42;;;;;;;0.20;0.20;;;8.20;99.90;;;;;;6218450;23;20099;-79
2023/04/12 09:06:08;;;;;;;0.13;0.13;;;8.20;99.90;;;;;;6216910;23;20089;-78
2023/04/12 09:08:34;;;;;;;0.20;0.20;;;8.20;99.90;;;;;;6245756;23;20020;-80
2023/04/12 09:11:00;;;;;;;0.20;0.20;;;8.20;99.90;;;;;;6216999;23;20016;-79
2023/04/12 09:13:33;;;;;;;0.20;0.20;;;8.20;99.90;;;;;;6218178;23;20376;-80
2023/04/12 09:15:59;;;;;;;0.20;0.20;;;8.30;99.90;;;;;;6224654;23;20020;-78
2023/04/12 09:18:26;;;;;;;0.20;0.20;;;8.30;99.90;;;;;;6252829;23;20184;-78
2023/04/12 09:21:10;;;;;;;0.13;0.13;;;8.50;99.90;;;;;;6242204;23;20039;-80
2023/04/12 09:23:39;;;;;;;0.20;0.20;;;8.50;99.90;;;;;;6216813;23;20055;-80
2023/04/12 09:26:05;;;;;;;0.20;0.20;;;8.50;99.90;;;;;;6241914;23;20087;-79
2023/04/12 09:28:31;;;;;;;0.20;0.20;;;8.50;99.90;;;;;;6243575;23;20016;-80
2023/04/12 09:30:59;;;;;;;0.17;0.17;;;8.60;99.90;;;;;;6216326;23;20093;-79
2023/04/12 09:33:38;;;;;;;0.17;0.17;;;8.50;99.90;;;;;;6243268;23;20055;-80
2023/04/12 09:36:07;;;;;;;0.20;0.20;;;8.60;99.90;;;;;;6242880;23;20016;-80
2023/04/12 09:38:35;;;;;;;0.20;0.20;;;8.60;99.90;;;;;;6208537;22;20445;-79
2023/04/12 09:41:29;;;;;;;0.20;0.20;;;8.60;99.90;;;;;;6212089;23;20115;-82
2023/04/12 09:43:57;;;;;;;0.20;0.20;;;8.70;99.90;;;;;;6216289;23;20016;-81
2023/04/12 09:46:23;;;;;;;0.20;0.20;;;8.70;99.90;;;;;;6215585;23;20016;-82
2023/04/12 09:48:51;;;;;;;0.20;0.20;;;8.70;99.90;;;;;;6243110;23;20276;-82
2023/04/12 09:51:28;;;;;;;0.20;0.20;;;8.80;99.90;;;;;;6243269;23;20027;-81
2023/04/12 09:54:01;;;;;;;0.20;0.20;;;9.00;99.90;;;;;;6244163;23;20040;-83
2023/04/12 09:56:35;;;;;;;0.20;0.20;;;9.30;99.90;;;;;;6211732;23;20086;-81
2023/04/12 09:59:05;;;;;;;0.20;0.20;;;9.30;99.90;;;;;;6216206;23;20023;-79
2023/04/12 10:01:40;;;;;;;0.20;0.20;;;9.50;99.90;;;;;;6213988;23;20419;-80
2023/04/12 10:04:06;;;;;;;0.20;0.20;;;9.60;99.90;;;;;;6242646;23;20008;-79
2023/04/12 10:06:33;;;;;;;0.10;0.10;;;9.70;99.90;;;;;;6216079;23;20042;-82
2023/04/12 10:09:03;;;;;;;0.10;0.10;;;9.90;99.90;;;;;;6213948;23;20012;-82
2023/04/12 10:11:29;;;;;;;0.20;0.20;;;10.00;99.90;;;;;;6241059;23;20080;-82
2023/04/12 10:13:58;;;;;;;0.20;0.20;;;10.20;99.90;;;;;;6243148;23;20016;-82
2023/04/12 10:16:25;;;;;;;0.10;0.10;;;10.30;99.90;;;;;;6214581;23;20024;-82
2023/04/12 10:18:53;;;;;;;0.13;0.13;;;10.20;99.90;;;;;;6243005;23;20024;-82
2023/04/12 10:21:20;;;;;;;0.20;0.20;;;10.30;99.90;;;;;;6242917;23;20332;-82
2023/04/12 10:23:46;;;;;;;0.20;0.20;;;10.30;99.90;;;;;;6215186;23;20024;-81
2023/04/12 10:26:14;;;;;;;0.20;0.20;;;10.40;99.90;;;;;;6240971;23;20012;-77
2023/04/12 10:28:45;;;;;;;0.20;0.20;;;10.40;99.90;;;;;;6243068;23;20024;-78
2023/04/12 10:31:31;;;;;;;0.20;0.20;;;10.60;99.90;;;;;;6241493;23;20016;-77
2023/04/12 10:33:59;;;;;;;0.20;0.20;;;10.60;99.90;;;;;;6217136;23;20485;-78
2023/04/12 10:36:52;;;;;;;0.20;0.20;;;10.70;99.90;;;;;;6241908;23;20058;-78
2023/04/12 10:39:32;;;;;;;0.10;0.10;;;10.80;99.90;;;;;;6243690;23;20048;-77
2023/04/12 10:42:21;;;;;;;0.10;0.10;;;11.00;99.90;;;;;;6214803;23;20023;-77
2023/04/12 10:44:48;;;;;;;0.20;0.20;;;11.10;99.90;;;;;;6243028;23;20022;-77
2023/04/12 10:47:14;;;;;;;0.20;0.20;;;11.30;99.90;;;;;;6217139;23;20458;-77
2023/04/12 10:49:40;;;;;;;0.20;0.20;;;11.40;99.90;;;;;;6216592;23;20027;-77
2023/04/12 10:52:09;;;;;;;0.20;0.20;;;11.50;99.90;;;;;;6241821;23;20016;-82
2023/04/12 10:54:35;;;;;;;0.20;0.20;;;11.70;99.90;;;;;;6244569;23;20031;-83
2023/04/12 10:57:02;;;;;;;0.20;0.20;;;11.70;99.90;;;;;;6244062;23;20062;-82
2023/04/12 10:59:51;;;;;;;0.10;0.10;;;11.70;99.90;;;;;;6226999;23;20321;-82
2023/04/12 11:02:20;;;;;;;0.20;0.20;;;11.70;99.90;;;;;;6226606;23;20024;-82
2023/04/12 11:05:04;;;;;;;0.17;0.17;;;11.70;99.90;;;;;;6243050;23;20511;-82
2023/04/12 11:07:40;;;;;;;0.20;0.20;;;11.70;99.90;;;;;;6214778;23;20411;-82
2023/04/12 11:10:14;;;;;;;0.20;0.20;;;11.70;99.90;;;;;;6242186;23;20027;-82
2023/04/12 11:12:56;;;;;;;0.10;0.10;;;12.00;99.90;;;;;;6213031;23;20508;-82
2023/04/12 11:15:25;;;;;;;0.20;0.20;;;12.20;99.90;;;;;;6241957;23;20024;-82
2023/04/12 11:17:59;;;;;;;0.20;0.20;;;12.50;99.90;;;;;;6215770;23;20008;-82
2023/04/12 11:20:29;;;;;;;0.10;0.10;;;12.80;99.90;;;;;;6213680;23;20074;-81
2023/04/12 11:22:55;;;;;;;0.20;0.20;;;13.10;99.90;;;;;;6215358;23;20112;-82
2023/04/12 11:25:21;;;;;;;0.20;0.20;;;13.20;99.90;;;;;;6241598;23;20020;-81
2023/04/12 11:27:52;;;;;;;0.20;0.20;;;13.30;99.90;;;;;;6214269;23;20091;-79
2023/04/12 11:30:18;;;;;;;0.10;0.10;;;13.20;99.90;;;;;;6241523;23;20020;-82
2023/04/12 11:32:44;;;;;;;0.20;0.20;;;13.20;99.90;;;;;;6213766;23;20012;-82
2023/04/12 11:35:10;;;;;;;0.20;0.20;;;13.20;99.90;;;;;;6242013;23;20019;-82
2023/04/12 11:37:37;;;;;;;0.10;0.10;;;13.20;99.90;;;;;;6240744;23;20020;-82
2023/04/12 11:40:04;;;;;;;0.10;0.10;;;13.20;99.90;;;;;;6214650;23;20388;-83
2023/04/12 11:42:31;;;;;;;0.10;0.10;;;13.30;99.90;;;;;;6240562;23;20087;-81
2023/04/12 11:44:57;;;;;;;0.20;0.20;;;13.40;99.90;;;;;;6242072;23;20440;-81
2023/04/12 11:47:24;;;;;;;0.20;0.20;;;13.30;99.90;;;;;;6213924;23;20052;-83
2023/04/12 11:49:54;;;;;;;0.10;0.10;;;13.30;99.90;;;;;;6215763;23;20020;-81
2023/04/12 11:52:26;;;;;;;0.20;0.20;;;13.20;99.90;;;;;;6242061;23;20030;-81
2023/04/12 11:54:57;;;;;;;0.20;0.20;;;13.20;99.90;;;;;;6242456;23;20019;-82
2023/04/12 11:57:23;;;;;;;0.10;0.10;;;13.10;99.90;;;;;;6212166;23;20091;-82
2023/04/12 11:59:50;;;;;;;0.10;0.10;;;13.00;99.90;;;;;;6215139;23;20047;-82
2023/04/12 12:02:17;;;;;;;0.20;0.20;;;13.00;99.90;;;;;;6213792;23;20373;-81
2023/04/12 12:04:47;;;;;;;0.10;0.10;;;12.90;99.90;;;;;;6216068;23;20055;-82
2023/04/12 12:07:14;;;;;;;0.10;0.10;;;13.00;99.90;;;;;;6239008;22;20038;-80
2023/04/12 12:10:40;;;;;;;0.20;0.20;;;13.40;99.90;;;;;;6213308;23;20352;-82
2023/04/12 12:14:05;;;;;;;0.10;0.10;;;13.00;99.90;;;;;;6214162;23;20055;-79
2023/04/12 12:16:31;;;;;;;0.10;0.10;;;13.00;99.90;;;;;;6213299;23;20031;-80
2023/04/12 12:18:57;;;;;;;0.10;0.10;;;13.00;99.90;;;;;;6218334;23;20024;-80
2023/04/12 12:21:25;;;;;;;0.20;0.20;;;13.00;99.90;;;;;;6216843;23;20361;-79
2023/04/12 12:23:50;;;;;;;0.20;0.20;;;12.90;99.90;;;;;;6216250;23;20399;-80
2023/04/12 12:26:21;;;;;;;0.10;0.10;;;13.00;99.90;;;;;;6214895;23;20044;-78
2023/04/12 12:28:59;;;;;;;0.20;0.20;;;12.90;99.90;;;;;;6243194;23;20028;-79
2023/04/12 12:31:36;;;;;;;0.20;0.20;;;12.90;99.90;;;;;;6216887;23;20380;-79
2023/04/12 12:34:02;;;;;;;0.10;0.10;;;12.90;99.90;;;;;;6215367;23;20015;-80
2023/04/12 12:36:52;;;;;;;0.10;0.10;;;12.80;99.90;;;;;;6242675;23;20401;-79
2023/04/12 12:39:30;;;;;;;0.17;0.17;;;12.70;99.90;;;;;;6217485;23;20051;-79
2023/04/12 12:41:56;;;;;;;0.20;0.20;;;12.70;99.90;;;;;;6222866;23;20020;-77
2023/04/12 12:44:23;;;;;;;0.20;0.20;;;12.50;99.90;;;;;;6228780;23;20098;-79
2023/04/12 12:46:52;;;;;;;0.20;0.20;;;12.70;99.90;;;;;;6242670;23;20039;-79
2023/04/12 12:49:23;;;;;;;0.20;0.20;;;12.50;99.90;;;;;;6240916;23;20027;-79
2023/04/12 12:51:49;;;;;;;0.20;0.20;;;12.80;99.90;;;;;;6214140;23;20055;-80
2023/04/12 12:54:16;;;;;;;0.10;0.10;;;12.80;99.90;;;;;;6216123;23;20023;-79
2023/04/12 12:56:43;;;;;;;0.20;0.20;;;12.80;99.90;;;;;;6214423;23;20016;-78
2023/04/12 12:59:09;;;;;;;0.20;0.20;;;13.10;99.90;;;;;;6242317;23;20688;-79
2023/04/12 13:01:35;;;;;;;0.10;0.10;;;13.10;99.90;;;;;;6216004;23;20055;-79
2023/04/12 13:04:10;;;;;;;0.10;0.10;;;13.20;99.90;;;;;;6216549;23;20051;-78